createdAt,value
2017-03-31T00:00:24.057Z,11.46
2017-03-31T00:01:33.317Z,11.48
2017-03-31T00:02:43.282Z,11.58
2017-03-31T00:03:52.876Z,11.48
2017-03-31T00:05:02.833Z,11.46
2017-03-31T00:06:12.818Z,11.42
2017-03-31T00:07:22.448Z,11.45
2017-03-31T00:08:32.365Z,11.39
2017-03-31T00:09:42.310Z,11.4
2017-03-31T00:10:52.570Z,11.39
2017-03-31T00:12:02.610Z,11.39
2017-03-31T00:13:12.505Z,11.42
2017-03-31T00:14:22.412Z,11.38
2017-03-31T00:15:32.349Z,11.34
2017-03-31T00:16:42.659Z,11.34
2017-03-31T00:17:52.038Z,11.46
2017-03-31T00:19:01.636Z,11.38
2017-03-31T00:20:11.224Z,11.39
2017-03-31T00:21:21.150Z,11.3
2017-03-31T00:22:30.713Z,11.33
2017-03-31T00:23:40.613Z,11.33
2017-03-31T00:24:50.306Z,11.24
2017-03-31T00:25:59.898Z,11.25
2017-03-31T00:27:09.859Z,11.15
2017-03-31T00:28:20.089Z,11.09
2017-03-31T00:29:30.104Z,11.05
2017-03-31T00:30:40.125Z,11.12
2017-03-31T00:31:50.065Z,11.05
2017-03-31T00:33:00.003Z,11.06
2017-03-31T00:34:09.893Z,11.08
2017-03-31T00:35:19.846Z,11.09
2017-03-31T00:36:29.797Z,11.05
2017-03-31T00:37:39.429Z,10.94
2017-03-31T00:38:49.042Z,10.95
2017-03-31T00:39:59.264Z,10.87
2017-03-31T00:41:09.216Z,10.88
2017-03-31T00:42:18.178Z,10.77
2017-03-31T00:43:28.309Z,10.67
2017-03-31T00:44:37.634Z,10.77
2017-03-31T00:45:47.511Z,10.8
2017-03-31T00:46:57.466Z,10.8
2017-03-31T00:48:07.091Z,10.75
2017-03-31T00:49:17.277Z,10.84
2017-03-31T00:50:26.925Z,10.76
2017-03-31T00:51:37.116Z,10.69
2017-03-31T00:52:47.034Z,10.67
2017-03-31T00:53:56.934Z,10.67
2017-03-31T00:55:06.274Z,10.61
2017-03-31T00:56:16.183Z,10.57
2017-03-31T00:57:26.425Z,10.58
2017-03-31T00:58:36.346Z,10.55
2017-03-31T00:59:46.266Z,10.45
2017-03-31T01:00:56.227Z,10.4
2017-03-31T01:02:06.183Z,10.34
2017-03-31T01:03:16.384Z,10.37
2017-03-31T01:04:25.966Z,10.32
2017-03-31T01:05:35.540Z,10.42
2017-03-31T01:06:45.355Z,10.39
2017-03-31T01:07:55.301Z,10.27
2017-03-31T01:09:05.503Z,10.36
2017-03-31T01:10:15.443Z,10.32
2017-03-31T01:11:25.073Z,10.27
2017-03-31T01:12:34.679Z,10.27
2017-03-31T01:13:44.666Z,10.26
2017-03-31T01:14:54.293Z,10.26
2017-03-31T01:16:04.212Z,10.45
2017-03-31T01:17:13.891Z,10.26
2017-03-31T01:18:23.465Z,10.47
2017-03-31T01:19:33.058Z,10.24
2017-03-31T01:20:43.215Z,10.27
2017-03-31T01:21:53.144Z,10.3
2017-03-31T01:23:02.449Z,10.29
2017-03-31T01:24:12.036Z,10.3
2017-03-31T01:25:22.015Z,10.21
2017-03-31T01:26:32.204Z,10.21
2017-03-31T01:27:41.827Z,10.17
2017-03-31T01:28:51.743Z,10.13
2017-03-31T01:30:01.457Z,10.22
2017-03-31T01:31:11.366Z,10.18
2017-03-31T01:32:21.195Z,10.18
2017-03-31T01:33:31.114Z,10.19
2017-03-31T01:34:40.708Z,10
2017-03-31T01:35:50.788Z,9.99
2017-03-31T01:37:00.696Z,9.98
2017-03-31T01:38:10.553Z,9.99
2017-03-31T01:39:20.504Z,9.96
2017-03-31T01:40:30.101Z,9.91
2017-03-31T01:41:40.172Z,9.91
2017-03-31T01:42:50.081Z,9.85
2017-03-31T01:44:00.331Z,9.85
2017-03-31T01:45:10.262Z,9.89
2017-03-31T01:46:20.170Z,9.91
2017-03-31T01:47:30.119Z,9.83
2017-03-31T01:48:39.754Z,9.88
2017-03-31T01:49:50.004Z,9.84
2017-03-31T01:50:59.971Z,9.91
2017-03-31T01:52:09.556Z,9.95
2017-03-31T01:53:19.527Z,9.99
2017-03-31T01:54:29.520Z,9.98
2017-03-31T01:55:39.806Z,9.95
2017-03-31T01:56:49.731Z,9.92
2017-03-31T01:57:59.345Z,9.95
2017-03-31T01:59:09.315Z,9.89
2017-03-31T02:00:19.311Z,9.96
2017-03-31T02:01:29.184Z,9.83
2017-03-31T02:02:39.239Z,9.89
2017-03-31T02:03:49.247Z,9.88
2017-03-31T02:04:59.139Z,9.8
2017-03-31T02:06:09.143Z,9.81
2017-03-31T02:07:19.027Z,9.78
2017-03-31T02:08:28.941Z,9.78
2017-03-31T02:09:38.847Z,9.8
2017-03-31T02:10:48.886Z,9.84
2017-03-31T02:11:58.483Z,9.83
2017-03-31T02:13:08.653Z,9.81
2017-03-31T02:14:17.612Z,9.84
2017-03-31T02:15:27.522Z,9.8
2017-03-31T02:16:37.121Z,9.8
2017-03-31T02:17:46.723Z,9.78
2017-03-31T02:18:56.633Z,9.81
2017-03-31T02:20:06.573Z,9.84
2017-03-31T02:21:16.541Z,9.8
2017-03-31T02:22:26.143Z,9.83
2017-03-31T02:23:35.795Z,9.71
2017-03-31T02:24:45.331Z,9.67
2017-03-31T02:25:55.239Z,9.62
2017-03-31T02:27:05.208Z,9.63
2017-03-31T02:28:18.379Z,9.6
2017-03-31T02:29:28.026Z,9.6
2017-03-31T02:30:38.238Z,9.55
2017-03-31T02:31:48.177Z,9.56
2017-03-31T02:32:58.091Z,9.58
2017-03-31T02:34:07.731Z,9.48
2017-03-31T02:35:17.701Z,9.55
2017-03-31T02:36:27.865Z,9.59
2017-03-31T02:37:37.129Z,9.47
2017-03-31T02:38:47.049Z,9.53
2017-03-31T02:39:57.149Z,9.53
2017-03-31T02:41:06.737Z,9.55
2017-03-31T02:42:16.936Z,9.55
2017-03-31T02:43:26.238Z,9.55
2017-03-31T02:44:35.358Z,9.52
2017-03-31T02:45:45.263Z,9.56
2017-03-31T02:46:55.303Z,9.56
2017-03-31T02:48:05.460Z,9.56
2017-03-31T02:49:15.385Z,9.62
2017-03-31T02:50:24.995Z,9.62
2017-03-31T02:51:34.934Z,9.55
2017-03-31T02:52:44.838Z,9.58
2017-03-31T02:53:55.044Z,9.56
2017-03-31T02:55:04.935Z,9.53
2017-03-31T02:56:14.538Z,9.58
2017-03-31T02:57:24.438Z,9.4
2017-03-31T02:58:34.052Z,9.42
2017-03-31T02:59:43.929Z,9.42
2017-03-31T03:00:53.855Z,9.4
2017-03-31T03:02:03.942Z,9.4
2017-03-31T03:03:13.832Z,9.41
2017-03-31T03:04:23.891Z,9.4
2017-03-31T03:05:34.144Z,9.41
2017-03-31T03:06:44.115Z,9.35
2017-03-31T03:07:54.069Z,9.34
2017-03-31T03:09:04.001Z,9.38
2017-03-31T03:10:13.296Z,9.27
2017-03-31T03:11:22.818Z,9.2
2017-03-31T03:12:32.505Z,9.27
2017-03-31T03:13:42.199Z,9.25
2017-03-31T03:14:52.118Z,9.15
2017-03-31T03:16:02.166Z,9.17
2017-03-31T03:17:12.383Z,9.25
2017-03-31T03:18:22.303Z,9.08
2017-03-31T03:19:31.975Z,9.12
2017-03-31T03:20:41.889Z,9.15
2017-03-31T03:21:51.469Z,9.15
2017-03-31T03:23:01.767Z,9.08
2017-03-31T03:24:11.713Z,9.12
2017-03-31T03:25:21.621Z,8.98
2017-03-31T03:26:31.568Z,9
2017-03-31T03:27:41.506Z,9.04
2017-03-31T03:28:51.676Z,9.05
2017-03-31T03:30:01.617Z,8.93
2017-03-31T03:31:11.325Z,9
2017-03-31T03:32:21.485Z,8.89
2017-03-31T03:33:30.783Z,8.87
2017-03-31T03:34:40.646Z,8.82
2017-03-31T03:35:50.314Z,8.75
2017-03-31T03:37:00.248Z,8.8
2017-03-31T03:38:09.883Z,8.8
2017-03-31T03:39:19.932Z,8.79
2017-03-31T03:40:29.776Z,8.7
2017-03-31T03:41:39.417Z,8.79
2017-03-31T03:42:49.005Z,8.7
2017-03-31T03:43:58.680Z,8.61
2017-03-31T03:45:08.571Z,8.7
2017-03-31T03:46:18.824Z,8.63
2017-03-31T03:47:28.094Z,8.66
2017-03-31T03:48:38.089Z,8.63
2017-03-31T03:49:47.344Z,8.7
2017-03-31T03:50:56.945Z,8.6
2017-03-31T03:52:06.863Z,8.61
2017-03-31T03:53:16.471Z,8.53
2017-03-31T03:54:26.405Z,8.5
2017-03-31T03:55:35.986Z,8.58
2017-03-31T03:56:45.964Z,8.58
2017-03-31T03:57:56.166Z,8.53
2017-03-31T03:59:06.118Z,8.63
2017-03-31T04:00:16.052Z,8.63
2017-03-31T04:01:25.962Z,8.58
2017-03-31T04:02:35.870Z,8.61
2017-03-31T04:03:46.146Z,8.48
2017-03-31T04:04:56.095Z,8.57
2017-03-31T04:06:06.025Z,8.5
2017-03-31T04:07:15.935Z,8.52
2017-03-31T04:08:25.843Z,8.52
2017-03-31T04:09:35.711Z,8.48
2017-03-31T04:10:45.644Z,8.5
2017-03-31T04:11:55.581Z,8.58
2017-03-31T04:13:05.167Z,8.55
2017-03-31T04:14:14.840Z,8.6
2017-03-31T04:15:25.021Z,8.58
2017-03-31T04:16:34.612Z,8.53
2017-03-31T04:17:43.920Z,8.53
2017-03-31T04:18:53.647Z,8.49
2017-03-31T04:20:03.276Z,8.57
2017-03-31T04:21:12.845Z,8.57
2017-03-31T04:22:22.218Z,8.55
2017-03-31T04:23:32.135Z,8.61
2017-03-31T04:24:42.071Z,8.55
2017-03-31T04:25:52.083Z,8.58
2017-03-31T04:27:02.346Z,8.61
2017-03-31T04:28:12.280Z,8.48
2017-03-31T04:29:22.236Z,8.5
2017-03-31T04:30:31.206Z,8.5
2017-03-31T04:31:41.113Z,8.55
2017-03-31T04:32:50.952Z,8.53
2017-03-31T04:34:00.915Z,8.45
2017-03-31T04:35:10.506Z,8.4
2017-03-31T04:36:20.561Z,8.42
2017-03-31T04:37:29.859Z,8.4
2017-03-31T04:38:39.742Z,8.34
2017-03-31T04:39:49.337Z,8.32
2017-03-31T04:40:59.243Z,8.4
2017-03-31T04:42:08.825Z,8.48
2017-03-31T04:43:18.799Z,8.4
2017-03-31T04:44:29.011Z,8.4
2017-03-31T04:45:39.026Z,8.42
2017-03-31T04:46:48.685Z,8.39
2017-03-31T04:47:58.667Z,8.42
2017-03-31T04:49:08.300Z,8.42
2017-03-31T04:50:18.797Z,8.4
2017-03-31T04:51:28.719Z,8.31
2017-03-31T04:52:38.301Z,8.37
2017-03-31T04:53:47.996Z,8.32
2017-03-31T04:54:57.570Z,8.34
2017-03-31T04:56:07.472Z,8.3
2017-03-31T04:57:17.386Z,8.23
2017-03-31T04:58:27.406Z,8.27
2017-03-31T04:59:36.985Z,8.28
2017-03-31T05:00:46.624Z,8.16
2017-03-31T05:01:56.500Z,8.27
2017-03-31T05:03:07.061Z,8.23
2017-03-31T05:04:16.966Z,8.27
2017-03-31T05:05:26.629Z,8.28
2017-03-31T05:06:36.292Z,8.28
2017-03-31T05:07:46.156Z,8.35
2017-03-31T05:08:56.069Z,8.31
2017-03-31T05:10:05.710Z,8.31
2017-03-31T05:11:14.973Z,8.39
2017-03-31T05:12:24.964Z,8.34
2017-03-31T05:13:35.327Z,8.28
2017-03-31T05:14:45.236Z,8.3
2017-03-31T05:15:54.836Z,8.23
2017-03-31T05:17:04.754Z,8.28
2017-03-31T05:18:14.702Z,8.28
2017-03-31T05:19:24.864Z,8.27
2017-03-31T05:20:34.803Z,8.24
2017-03-31T05:21:44.745Z,8.31
2017-03-31T05:22:54.362Z,8.35
2017-03-31T05:24:04.372Z,8.3
2017-03-31T05:25:14.697Z,8.35
2017-03-31T05:26:24.877Z,8.37
2017-03-31T05:27:34.786Z,8.46
2017-03-31T05:28:44.407Z,8.34
2017-03-31T05:29:53.714Z,8.4
2017-03-31T05:31:03.968Z,8.45
2017-03-31T05:32:13.549Z,8.48
2017-03-31T05:33:23.501Z,8.55
2017-03-31T05:34:33.410Z,8.46
2017-03-31T05:35:43.318Z,8.55
2017-03-31T05:36:53.510Z,8.5
2017-03-31T05:38:03.427Z,8.52
2017-03-31T05:39:13.508Z,8.46
2017-03-31T05:40:23.450Z,8.5
2017-03-31T05:42:05.635Z,8.57
2017-03-31T05:43:15.537Z,8.48
2017-03-31T05:44:25.515Z,8.66
2017-03-31T05:45:35.217Z,8.64
2017-03-31T05:46:45.140Z,8.61
2017-03-31T05:47:54.987Z,8.64
2017-03-31T05:49:04.948Z,8.58
2017-03-31T05:50:14.915Z,8.6
2017-03-31T05:51:24.928Z,8.6
2017-03-31T05:52:34.829Z,8.61
2017-03-31T05:53:44.990Z,8.74
2017-03-31T05:54:54.974Z,8.75
2017-03-31T05:56:04.907Z,8.71
2017-03-31T05:57:14.810Z,8.75
2017-03-31T05:58:24.112Z,8.74
2017-03-31T05:59:33.948Z,8.8
2017-03-31T06:00:43.871Z,8.86
2017-03-31T06:01:53.842Z,8.79
2017-03-31T06:03:03.762Z,8.79
2017-03-31T06:04:13.347Z,8.8
2017-03-31T06:05:23.262Z,8.93
2017-03-31T06:06:32.856Z,8.79
2017-03-31T06:07:42.546Z,8.8
2017-03-31T06:08:52.130Z,8.79
2017-03-31T06:10:01.731Z,8.89
2017-03-31T06:11:11.244Z,8.97
2017-03-31T06:12:20.853Z,8.89
2017-03-31T06:13:30.830Z,8.97
2017-03-31T06:14:40.442Z,8.97
2017-03-31T06:15:50.346Z,8.93
2017-03-31T06:17:00.520Z,8.97
2017-03-31T06:18:10.442Z,8.9
2017-03-31T06:19:20.055Z,8.89
2017-03-31T06:20:30.026Z,8.89
2017-03-31T06:21:39.962Z,8.87
2017-03-31T06:22:49.814Z,8.8
2017-03-31T06:23:59.126Z,8.93
2017-03-31T06:25:09.081Z,8.89
2017-03-31T06:26:18.670Z,9.04
2017-03-31T06:27:28.650Z,9.02
2017-03-31T06:28:38.566Z,9.08
2017-03-31T06:29:48.152Z,9.2
2017-03-31T06:30:58.066Z,9.22
2017-03-31T06:32:07.969Z,9.29
2017-03-31T06:33:17.398Z,9.33
2017-03-31T06:34:27.242Z,9.35
2017-03-31T06:35:37.178Z,9.37
2017-03-31T06:36:46.786Z,9.55
2017-03-31T06:37:56.425Z,9.52
2017-03-31T06:39:06.393Z,9.5
2017-03-31T06:40:16.567Z,9.63
2017-03-31T06:41:26.203Z,9.6
2017-03-31T06:42:35.804Z,9.66
2017-03-31T06:43:45.723Z,9.8
2017-03-31T06:44:54.994Z,9.81
2017-03-31T06:46:05.195Z,9.88
2017-03-31T06:47:14.777Z,9.88
2017-03-31T06:48:24.701Z,9.96
2017-03-31T06:49:34.627Z,10
2017-03-31T06:50:43.901Z,10.07
2017-03-31T06:51:54.130Z,10.11
2017-03-31T06:53:04.034Z,10.1
2017-03-31T06:54:12.986Z,10.21
2017-03-31T06:55:22.904Z,10.21
2017-03-31T06:56:32.580Z,10.21
2017-03-31T06:57:42.799Z,10.11
2017-03-31T06:58:52.778Z,10.22
2017-03-31T07:00:02.750Z,10.15
2017-03-31T07:01:12.362Z,10.24
2017-03-31T07:02:22.276Z,10.26
2017-03-31T07:03:32.479Z,10.32
2017-03-31T07:04:42.061Z,10.3
2017-03-31T07:05:51.685Z,10.29
2017-03-31T07:07:01.279Z,10.29
2017-03-31T07:08:11.272Z,10.42
2017-03-31T07:09:21.484Z,10.36
2017-03-31T07:10:31.486Z,10.36
2017-03-31T07:11:41.070Z,10.32
2017-03-31T07:12:51.057Z,10.37
2017-03-31T07:14:00.973Z,10.45
2017-03-31T07:15:10.985Z,10.47
2017-03-31T07:16:20.576Z,10.5
2017-03-31T07:17:30.211Z,10.55
2017-03-31T07:18:40.111Z,10.51
2017-03-31T07:19:50.016Z,10.57
2017-03-31T07:21:00.175Z,10.58
2017-03-31T07:22:09.460Z,10.75
2017-03-31T07:23:19.103Z,10.69
2017-03-31T07:24:28.747Z,10.73
2017-03-31T07:25:38.647Z,10.87
2017-03-31T07:26:48.917Z,10.9
2017-03-31T07:27:58.858Z,11.03
2017-03-31T07:29:08.558Z,11.23
2017-03-31T07:30:18.750Z,11.31
2017-03-31T07:31:28.688Z,11.42
2017-03-31T07:32:38.554Z,11.43
2017-03-31T07:33:48.475Z,11.4
2017-03-31T07:34:58.410Z,11.38
2017-03-31T07:36:08.363Z,11.48
2017-03-31T07:37:18.277Z,11.58
2017-03-31T07:38:28.460Z,11.64
2017-03-31T07:39:38.375Z,11.71
2017-03-31T07:40:48.368Z,11.72
2017-03-31T07:41:58.462Z,11.89
2017-03-31T07:43:08.401Z,12.01
2017-03-31T07:44:18.614Z,12.09
2017-03-31T07:45:28.310Z,12.09
2017-03-31T07:46:38.208Z,12.22
2017-03-31T07:47:47.890Z,12.26
2017-03-31T07:48:58.043Z,12.35
2017-03-31T07:50:08.203Z,12.44
2017-03-31T07:51:18.261Z,12.57
2017-03-31T07:52:27.527Z,12.6
2017-03-31T07:53:37.438Z,12.77
2017-03-31T07:54:47.371Z,12.81
2017-03-31T07:55:57.521Z,12.95
2017-03-31T07:57:07.144Z,13
2017-03-31T07:58:17.049Z,13.09
2017-03-31T07:59:27.036Z,13.19
2017-03-31T08:00:36.968Z,13.31
2017-03-31T08:01:46.805Z,13.46
2017-03-31T08:02:58.284Z,13.58
2017-03-31T08:04:08.507Z,13.85
2017-03-31T08:05:18.450Z,14.19
2017-03-31T08:06:29.048Z,14.5
2017-03-31T08:07:39.598Z,14.84
2017-03-31T08:08:50.205Z,15.24
2017-03-31T08:10:00.447Z,15.45
2017-03-31T08:11:10.982Z,15.8
2017-03-31T08:12:21.466Z,16.14
2017-03-31T08:13:33.296Z,16.38
2017-03-31T08:14:43.857Z,16.83
2017-03-31T08:15:54.388Z,17.08
2017-03-31T08:17:04.923Z,17.28
2017-03-31T08:18:15.095Z,17.47
2017-03-31T08:19:25.561Z,17.76
2017-03-31T08:20:36.105Z,17.97
2017-03-31T08:21:45.894Z,18.1
2017-03-31T08:22:56.502Z,18.37
2017-03-31T08:24:06.688Z,18.42
2017-03-31T08:25:17.536Z,18.69
2017-03-31T08:26:28.031Z,18.94
2017-03-31T08:27:38.610Z,19.08
2017-03-31T08:28:48.887Z,19.24
2017-03-31T08:30:00.376Z,19.31
2017-03-31T08:31:10.807Z,19.6
2017-03-31T08:32:21.141Z,19.61
2017-03-31T08:33:31.436Z,19.71
2017-03-31T08:34:41.300Z,19.83
2017-03-31T08:35:51.182Z,19.98
2017-03-31T08:37:01.953Z,20
2017-03-31T08:38:12.543Z,20.12
2017-03-31T08:39:22.539Z,20.12
2017-03-31T08:40:33.043Z,20.11
2017-03-31T08:41:44.200Z,20.21
2017-03-31T08:42:55.005Z,20.19
2017-03-31T08:44:06.146Z,20.11
2017-03-31T08:45:16.418Z,20.08
2017-03-31T08:46:26.687Z,20
2017-03-31T08:47:36.883Z,19.97
2017-03-31T08:48:47.671Z,19.9
2017-03-31T08:49:57.912Z,20
2017-03-31T08:51:08.176Z,20.21
2017-03-31T08:52:19.003Z,20.31
2017-03-31T08:53:30.175Z,20.56
2017-03-31T08:54:40.674Z,20.83
2017-03-31T08:55:51.180Z,21.13
2017-03-31T08:57:01.443Z,21.13
2017-03-31T08:58:11.670Z,21.34
2017-03-31T08:59:23.144Z,21.49
2017-03-31T09:00:33.682Z,21.78
2017-03-31T09:01:43.568Z,22.01
2017-03-31T09:02:53.835Z,22.31
2017-03-31T09:04:04.393Z,22.61
2017-03-31T09:05:14.344Z,22.86
2017-03-31T09:06:24.888Z,23.2
2017-03-31T09:07:35.404Z,23.38
2017-03-31T09:08:45.902Z,23.57
2017-03-31T09:09:56.099Z,23.79
2017-03-31T09:11:06.670Z,24.09
2017-03-31T09:12:17.494Z,24.47
2017-03-31T09:13:27.630Z,24.45
2017-03-31T09:14:37.826Z,24.47
2017-03-31T09:15:48.021Z,24.54
2017-03-31T09:16:58.197Z,24.44
2017-03-31T09:18:08.628Z,24.47
2017-03-31T09:19:20.155Z,24.29
2017-03-31T09:20:30.724Z,24.29
2017-03-31T09:21:41.287Z,24.05
2017-03-31T09:22:51.823Z,23.95
2017-03-31T09:24:02.297Z,23.9
2017-03-31T09:25:12.495Z,23.77
2017-03-31T09:26:24.016Z,23.91
2017-03-31T09:27:34.368Z,24.12
2017-03-31T09:28:44.570Z,24.16
2017-03-31T09:29:55.514Z,24.47
2017-03-31T09:31:06.386Z,24.66
2017-03-31T09:32:16.976Z,24.97
2017-03-31T09:33:28.454Z,25.07
2017-03-31T09:34:38.669Z,25.02
2017-03-31T09:35:49.432Z,25.1
2017-03-31T09:37:00.996Z,25.17
2017-03-31T09:38:10.911Z,25.34
2017-03-31T09:39:22.120Z,25.59
2017-03-31T09:40:32.714Z,25.71
2017-03-31T09:41:43.470Z,25.92
2017-03-31T09:42:54.010Z,26.11
2017-03-31T09:44:05.161Z,26.19
2017-03-31T09:45:15.695Z,26.39
2017-03-31T09:46:25.997Z,26.75
2017-03-31T09:47:36.910Z,26.92
2017-03-31T09:48:47.176Z,26.8
2017-03-31T09:49:57.692Z,26.49
2017-03-31T09:51:08.278Z,26.34
2017-03-31T09:52:18.909Z,26.22
2017-03-31T09:53:30.372Z,26.09
2017-03-31T09:54:40.889Z,26
2017-03-31T09:55:51.431Z,25.88
2017-03-31T09:57:01.940Z,26.09
2017-03-31T09:58:12.149Z,26.14
2017-03-31T09:59:22.981Z,26.19
2017-03-31T10:00:33.250Z,26.16
2017-03-31T10:01:43.811Z,26.36
2017-03-31T10:02:54.335Z,26.46
2017-03-31T10:04:05.807Z,26.55
2017-03-31T10:05:16.638Z,26.71
2017-03-31T10:06:27.186Z,26.58
2017-03-31T10:07:37.838Z,26.31
2017-03-31T10:08:48.049Z,26.12
2017-03-31T10:09:58.634Z,25.81
2017-03-31T10:11:09.417Z,25.5
2017-03-31T10:12:19.777Z,25.29
2017-03-31T10:13:29.962Z,24.95
2017-03-31T10:14:40.509Z,24.62
2017-03-31T10:15:50.723Z,24.4
2017-03-31T10:17:01.536Z,24.22
2017-03-31T10:18:11.457Z,24.12
2017-03-31T10:19:21.975Z,23.95
2017-03-31T10:20:32.530Z,23.87
2017-03-31T10:21:42.355Z,23.76
2017-03-31T10:22:52.835Z,23.69
2017-03-31T10:24:03.367Z,23.69
2017-03-31T10:25:13.893Z,23.65
2017-03-31T10:26:24.598Z,23.75
2017-03-31T10:27:35.202Z,23.85
2017-03-31T10:28:46.108Z,23.9
2017-03-31T10:29:56.386Z,24.02
2017-03-31T10:31:07.038Z,24.1
2017-03-31T10:32:17.603Z,24.17
2017-03-31T10:33:27.508Z,24.19
2017-03-31T10:34:38.352Z,24.24
2017-03-31T10:35:48.854Z,24.39
2017-03-31T10:36:59.762Z,24.34
2017-03-31T10:38:10.297Z,24.31
2017-03-31T10:39:20.853Z,24.32
2017-03-31T10:40:31.357Z,24.31
2017-03-31T10:41:41.381Z,24.28
2017-03-31T10:42:51.301Z,24.15
2017-03-31T10:44:01.614Z,24.09
2017-03-31T10:45:12.124Z,24.1
2017-03-31T10:46:22.725Z,24.17
2017-03-31T10:47:33.323Z,24.31
2017-03-31T10:48:44.607Z,24.24
2017-03-31T10:49:55.154Z,24.22
2017-03-31T10:51:05.703Z,24.34
2017-03-31T10:52:16.216Z,24.29
2017-03-31T10:53:27.886Z,24.24
2017-03-31T10:54:38.495Z,24.06
2017-03-31T10:55:48.722Z,23.98
2017-03-31T10:56:59.251Z,23.97
2017-03-31T10:58:09.161Z,24.05
2017-03-31T10:59:19.736Z,24.1
2017-03-31T11:00:30.294Z,24.16
2017-03-31T11:01:40.853Z,24.24
2017-03-31T11:02:51.392Z,24.2
2017-03-31T11:04:01.606Z,24.17
2017-03-31T11:05:11.971Z,24.25
2017-03-31T11:06:22.808Z,24.29
2017-03-31T11:07:33.355Z,24.38
2017-03-31T11:08:43.982Z,24.15
2017-03-31T11:09:54.728Z,24.07
2017-03-31T11:11:05.264Z,24.05
2017-03-31T11:12:15.521Z,24.05
2017-03-31T11:13:26.040Z,24.05
2017-03-31T11:14:35.937Z,23.92
2017-03-31T11:15:47.695Z,23.94
2017-03-31T11:16:58.310Z,23.97
2017-03-31T11:18:08.573Z,23.94
2017-03-31T11:19:19.132Z,23.72
2017-03-31T11:20:29.660Z,23.73
2017-03-31T11:21:40.464Z,23.73
2017-03-31T11:22:51.958Z,23.82
2017-03-31T11:24:02.469Z,23.83
2017-03-31T11:25:13.034Z,23.68
2017-03-31T11:26:23.622Z,23.79
2017-03-31T11:27:34.457Z,24.02
2017-03-31T11:28:45.131Z,24.1
2017-03-31T11:29:56.604Z,24.13
2017-03-31T11:31:06.803Z,24.24
2017-03-31T11:32:17.332Z,24.38
2017-03-31T11:33:28.111Z,24.45
2017-03-31T11:34:38.316Z,24.58
2017-03-31T11:35:49.806Z,24.62
2017-03-31T11:37:00.077Z,24.6
2017-03-31T11:38:10.867Z,24.72
2017-03-31T11:39:21.683Z,24.76
2017-03-31T11:40:31.853Z,24.76
2017-03-31T11:41:42.359Z,25.02
2017-03-31T11:42:52.922Z,25.17
2017-03-31T11:44:03.108Z,25.4
2017-03-31T11:45:13.622Z,25.61
2017-03-31T11:46:24.237Z,25.66
2017-03-31T11:47:34.738Z,25.62
2017-03-31T11:48:45.325Z,25.52
2017-03-31T11:49:55.910Z,25.29
2017-03-31T11:51:06.353Z,25.17
2017-03-31T11:52:16.555Z,25
2017-03-31T11:53:26.790Z,24.8
2017-03-31T11:54:36.705Z,24.6
2017-03-31T11:55:46.944Z,24.32
2017-03-31T11:56:57.705Z,24.01
2017-03-31T11:58:08.223Z,23.76
2017-03-31T11:59:18.785Z,23.48
2017-03-31T12:00:29.070Z,23.25
2017-03-31T12:01:39.332Z,22.98
2017-03-31T12:02:50.136Z,22.7
2017-03-31T12:04:00.391Z,22.5
2017-03-31T12:05:10.987Z,22.57
2017-03-31T12:06:21.552Z,22.58
2017-03-31T12:07:32.109Z,22.52
2017-03-31T12:08:42.877Z,22.64
2017-03-31T12:09:53.080Z,22.67
2017-03-31T12:11:03.730Z,22.75
2017-03-31T12:12:15.041Z,22.83
2017-03-31T12:13:25.610Z,22.68
2017-03-31T12:14:36.507Z,22.64
2017-03-31T12:15:46.786Z,22.61
2017-03-31T12:16:56.603Z,22.45
2017-03-31T12:18:07.143Z,22.33
2017-03-31T12:19:17.347Z,22.23
2017-03-31T12:20:29.124Z,22.05
2017-03-31T12:21:39.049Z,21.98
2017-03-31T12:22:50.589Z,21.87
2017-03-31T12:24:00.321Z,21.84
2017-03-31T12:25:10.875Z,21.86
2017-03-31T12:26:21.306Z,21.88
2017-03-31T12:27:31.946Z,21.97
2017-03-31T12:28:42.174Z,21.98
2017-03-31T12:29:52.724Z,22.09
2017-03-31T12:31:03.067Z,22.28
2017-03-31T12:32:13.284Z,22.33
2017-03-31T12:33:23.943Z,22.42
2017-03-31T12:34:35.480Z,22.43
2017-03-31T12:35:46.028Z,22.52
2017-03-31T12:36:56.409Z,22.57
2017-03-31T12:38:07.228Z,22.64
2017-03-31T12:39:17.828Z,22.7
2017-03-31T12:40:28.521Z,22.8
2017-03-31T12:42:10.876Z,22.71
2017-03-31T12:43:21.669Z,22.75
2017-03-31T12:44:31.895Z,22.82
2017-03-31T12:45:42.090Z,22.89
2017-03-31T12:46:52.598Z,23.01
2017-03-31T12:48:03.234Z,23.14
2017-03-31T12:49:14.000Z,23.18
2017-03-31T12:50:25.163Z,23.2
2017-03-31T12:51:35.725Z,23.17
2017-03-31T12:52:46.236Z,23.16
2017-03-31T12:53:56.562Z,23.16
2017-03-31T12:55:07.321Z,23.16
2017-03-31T12:56:17.538Z,23.2
2017-03-31T12:57:28.085Z,23.14
2017-03-31T12:58:39.578Z,23.11
2017-03-31T12:59:50.097Z,23.01
2017-03-31T13:01:00.949Z,23.03
2017-03-31T13:02:11.163Z,23.02
2017-03-31T13:03:21.412Z,23.01
2017-03-31T13:04:31.934Z,22.9
2017-03-31T13:05:42.120Z,22.8
2017-03-31T13:06:52.966Z,22.63
2017-03-31T13:08:03.277Z,22.52
2017-03-31T13:09:13.878Z,22.5
2017-03-31T13:10:24.144Z,22.52
2017-03-31T13:11:34.565Z,22.42
2017-03-31T13:12:45.191Z,22.28
2017-03-31T13:13:55.733Z,22.15
2017-03-31T13:15:06.251Z,22.2
2017-03-31T13:16:16.807Z,22.05
2017-03-31T13:17:27.366Z,22.02
2017-03-31T13:18:37.839Z,21.87
2017-03-31T13:19:48.068Z,21.88
2017-03-31T13:20:58.714Z,21.9
2017-03-31T13:22:10.289Z,21.73
2017-03-31T13:23:20.964Z,21.75
2017-03-31T13:24:31.360Z,21.87
2017-03-31T13:25:41.912Z,21.87
2017-03-31T13:26:52.473Z,22.02
2017-03-31T13:28:03.958Z,22.01
2017-03-31T13:29:15.429Z,21.98
2017-03-31T13:30:27.207Z,22.02
2017-03-31T13:31:38.431Z,22.03
2017-03-31T13:32:48.998Z,22.13
2017-03-31T13:33:59.522Z,22.08
2017-03-31T13:35:10.053Z,22.2
2017-03-31T13:36:20.925Z,22.15
2017-03-31T13:37:32.124Z,22.15
2017-03-31T13:38:42.651Z,22.16
2017-03-31T13:39:53.176Z,22.08
2017-03-31T13:41:05.322Z,22.06
2017-03-31T13:42:16.119Z,22.03
2017-03-31T13:43:26.612Z,22.03
2017-03-31T13:44:37.521Z,21.98
2017-03-31T13:45:48.055Z,22.02
2017-03-31T13:46:57.981Z,21.91
2017-03-31T13:48:08.168Z,21.94
2017-03-31T13:49:19.082Z,21.96
2017-03-31T13:50:29.483Z,21.98
2017-03-31T13:51:40.183Z,22.02
2017-03-31T13:52:50.883Z,21.98
2017-03-31T13:54:01.464Z,22.08
2017-03-31T13:55:13.264Z,22.12
2017-03-31T13:56:23.872Z,22.08
2017-03-31T13:57:34.142Z,22.16
2017-03-31T13:58:44.675Z,22.18
2017-03-31T13:59:55.192Z,22.03
2017-03-31T14:01:05.666Z,22.05
2017-03-31T14:02:16.194Z,22.02
2017-03-31T14:03:26.124Z,21.96
2017-03-31T14:04:36.368Z,21.91
2017-03-31T14:05:46.328Z,21.91
2017-03-31T14:06:57.183Z,21.84
2017-03-31T14:08:07.788Z,21.96
2017-03-31T14:09:18.065Z,21.9
2017-03-31T14:10:28.574Z,21.91
2017-03-31T14:11:39.766Z,22.01
2017-03-31T14:12:50.448Z,22.01
2017-03-31T14:14:01.490Z,21.98
2017-03-31T14:15:12.332Z,21.91
2017-03-31T14:16:22.840Z,21.97
2017-03-31T14:17:33.036Z,21.84
2017-03-31T14:18:43.789Z,21.73
2017-03-31T14:19:53.966Z,21.76
2017-03-31T14:21:04.153Z,21.72
2017-03-31T14:22:14.673Z,21.65
2017-03-31T14:23:25.363Z,21.69
2017-03-31T14:24:36.168Z,21.68
2017-03-31T14:25:46.769Z,21.66
2017-03-31T14:26:57.309Z,21.64
2017-03-31T14:28:07.510Z,21.69
2017-03-31T14:29:18.040Z,21.61
2017-03-31T14:30:28.841Z,21.71
2017-03-31T14:31:39.421Z,21.64
2017-03-31T14:32:49.668Z,21.66
2017-03-31T14:34:00.181Z,21.61
2017-03-31T14:35:10.792Z,21.58
2017-03-31T14:36:20.948Z,21.56
2017-03-31T14:37:30.870Z,21.56
2017-03-31T14:38:41.082Z,21.57
2017-03-31T14:39:51.330Z,21.6
2017-03-31T14:41:01.909Z,21.64
2017-03-31T14:42:12.686Z,21.56
2017-03-31T14:43:23.375Z,21.56
2017-03-31T14:44:33.581Z,21.57
2017-03-31T14:45:43.768Z,21.64
2017-03-31T14:46:54.316Z,21.54
2017-03-31T14:48:05.227Z,21.5
2017-03-31T14:49:16.456Z,21.46
2017-03-31T14:50:26.727Z,21.4
2017-03-31T14:51:36.942Z,21.4
2017-03-31T14:52:47.472Z,21.33
2017-03-31T14:53:58.013Z,21.27
2017-03-31T14:55:08.201Z,21.19
2017-03-31T14:56:18.426Z,21.23
2017-03-31T14:57:28.979Z,21.15
2017-03-31T14:58:39.598Z,21.22
2017-03-31T14:59:51.313Z,21.16
2017-03-31T15:01:02.534Z,21.18
2017-03-31T15:02:13.076Z,21.22
2017-03-31T15:03:24.243Z,21.18
2017-03-31T15:04:34.160Z,21.22
2017-03-31T15:05:44.921Z,21.12
2017-03-31T15:06:54.729Z,21.15
2017-03-31T15:08:06.193Z,21.16
2017-03-31T15:09:16.608Z,21.15
2017-03-31T15:10:27.122Z,21.12
2017-03-31T15:11:37.957Z,21.2
2017-03-31T15:12:48.201Z,21.13
2017-03-31T15:13:58.409Z,21.15
2017-03-31T15:15:08.934Z,21.16
2017-03-31T15:16:18.861Z,21.18
2017-03-31T15:17:29.689Z,21.16
2017-03-31T15:18:41.240Z,21.13
2017-03-31T15:19:51.776Z,21.27